Time;durP1;ratioP1;P1;durP2;ratioP2;P2;SDS_P1;SDS_P2;PMS_P1;PMS_P2;Temp;Humidity;BMP_temperature;BMP_pressure;BME280_temperature;BME280_humidity;BME280_pressure;Samples;Min_cycle;Max_cycle;Signal;HPM_P1;HPM_P2
2022/01/18 04:55:17;;;;;;;13.05;7.65;;;5.30;99.90;;;;;;4928424;23;20408;-78
2022/01/18 04:57:53;;;;;;;12.75;7.85;;;5.30;99.90;;;;;;4918446;29;20052;-78
2022/01/18 05:00:21;;;;;;;13.07;8.27;;;5.30;99.90;;;;;;4918342;29;20478;-78
2022/01/18 05:02:49;;;;;;;13.85;8.60;;;5.30;99.90;;;;;;4918456;29;20234;-78
2022/01/18 05:05:23;;;;;;;14.75;8.43;;;5.30;99.90;;;;;;4918379;29;20052;-80
2022/01/18 05:07:52;;;;;;;13.52;8.35;;;5.20;99.90;;;;;;4918658;29;20052;-78
2022/01/18 05:10:22;;;;;;;12.15;7.72;;;5.20;99.90;;;;;;4917881;29;20134;-80
2022/01/18 05:12:52;;;;;;;14.75;8.77;;;5.10;99.90;;;;;;4918601;29;20123;-79
2022/01/18 05:15:39;;;;;;;14.10;8.60;;;5.10;99.90;;;;;;4918056;29;20513;-79
2022/01/18 05:18:58;;;;;;;13.80;8.88;;;5.10;99.90;;;;;;4918431;29;20060;-78
2022/01/18 05:21:23;;;;;;;12.80;8.48;;;5.00;99.90;;;;;;4918018;29;20048;-81
2022/01/18 05:23:50;;;;;;;13.50;8.52;;;5.00;99.90;;;;;;4917710;29;20055;-79
2022/01/18 05:26:18;;;;;;;15.45;9.27;;;5.00;99.90;;;;;;4917870;29;20075;-79
2022/01/18 05:28:46;;;;;;;14.52;8.80;;;5.00;99.90;;;;;;4917295;29;20140;-79
2022/01/18 05:31:13;;;;;;;13.43;8.30;;;4.90;99.90;;;;;;4915131;29;20094;-79
2022/01/18 05:33:42;;;;;;;13.05;8.27;;;4.90;99.90;;;;;;4918381;29;20135;-79
2022/01/18 05:36:10;;;;;;;14.82;9.32;;;4.90;99.90;;;;;;4918594;29;20060;-77
2022/01/18 05:38:39;;;;;;;15.00;9.25;;;5.00;99.90;;;;;;4918673;29;20135;-77
2022/01/18 05:41:08;;;;;;;14.95;8.85;;;5.00;99.90;;;;;;4918201;29;20070;-79
2022/01/18 05:43:37;;;;;;;14.95;9.25;;;5.00;99.90;;;;;;4918346;29;20127;-77
2022/01/18 05:46:05;;;;;;;15.23;9.13;;;5.00;99.90;;;;;;4918259;29;20056;-77
2022/01/18 05:48:32;;;;;;;14.15;8.52;;;5.00;99.90;;;;;;4918383;29;20087;-78
2022/01/18 05:50:59;;;;;;;14.80;8.57;;;5.10;99.90;;;;;;4918607;29;20092;-77
2022/01/18 05:53:26;;;;;;;14.43;8.73;;;5.10;99.90;;;;;;4918273;29;20099;-77
2022/01/18 05:55:54;;;;;;;16.70;8.85;;;5.10;99.90;;;;;;4918429;29;20139;-77
2022/01/18 05:58:21;;;;;;;14.57;8.32;;;5.10;99.90;;;;;;4917988;29;20130;-77
2022/01/18 06:00:52;;;;;;;16.38;9.07;;;5.10;99.90;;;;;;4917128;29;20134;-76
2022/01/18 06:03:27;;;;;;;13.57;8.48;;;5.10;99.90;;;;;;4917993;29;20056;-78
2022/01/18 06:08:39;;;;;;;14.30;8.23;;;5.10;99.90;;;;;;4917941;29;20058;-78
2022/01/18 06:11:06;;;;;;;13.23;8.18;;;5.20;99.90;;;;;;4917803;29;20147;-79
2022/01/18 06:13:34;;;;;;;13.77;8.63;;;5.20;99.90;;;;;;4917986;29;20220;-77
2022/01/18 06:16:02;;;;;;;15.10;8.18;;;5.20;99.90;;;;;;4917782;29;20052;-78
2022/01/18 06:18:29;;;;;;;12.10;7.95;;;5.20;99.90;;;;;;4918226;29;20139;-76
2022/01/18 06:20:58;;;;;;;15.32;9.27;;;5.20;99.90;;;;;;4917805;29;20135;-76
2022/01/18 06:23:25;;;;;;;13.05;8.55;;;5.20;99.90;;;;;;4917060;29;20413;-78
2022/01/18 06:25:54;;;;;;;13.95;8.52;;;5.20;99.90;;;;;;4917513;29;20056;-77
2022/01/18 06:28:21;;;;;;;14.10;8.25;;;5.20;99.90;;;;;;4917723;29;20048;-77
2022/01/18 06:30:48;;;;;;;13.95;8.70;;;5.20;99.90;;;;;;4917700;29;20460;-77
2022/01/18 06:33:17;;;;;;;14.60;8.57;;;5.20;99.90;;;;;;4917519;29;20585;-77
2022/01/18 06:35:44;;;;;;;14.73;8.65;;;5.20;99.90;;;;;;4917484;29;20136;-76
2022/01/18 06:38:12;;;;;;;15.45;8.95;;;5.30;99.90;;;;;;4917412;29;20139;-78
2022/01/18 06:40:39;;;;;;;13.85;8.60;;;5.30;99.90;;;;;;4917301;29;20076;-77
2022/01/18 06:43:07;;;;;;;13.13;8.63;;;5.30;99.90;;;;;;4917049;29;20123;-77
2022/01/18 06:45:34;;;;;;;14.93;8.82;;;5.30;99.90;;;;;;4917345;29;20135;-78
2022/01/18 06:48:01;;;;;;;13.63;8.27;;;5.30;99.90;;;;;;4917335;29;20143;-78
2022/01/18 06:50:30;;;;;;;14.88;8.55;;;5.30;99.90;;;;;;4917068;29;20236;-78
2022/01/18 06:52:57;;;;;;;16.80;9.43;;;5.30;99.90;;;;;;4916578;29;20135;-79
2022/01/18 06:55:25;;;;;;;16.20;9.32;;;5.40;99.90;;;;;;4916719;29;20078;-78
2022/01/18 06:57:52;;;;;;;14.80;8.82;;;5.30;99.90;;;;;;4916990;29;20139;-79
2022/01/18 07:00:19;;;;;;;14.90;9.23;;;5.40;99.90;;;;;;4916865;29;20398;-78
2022/01/18 07:02:46;;;;;;;14.43;9.25;;;5.30;99.90;;;;;;4917172;29;20131;-78
2022/01/18 07:05:13;;;;;;;13.57;8.52;;;5.40;99.90;;;;;;4917006;29;20079;-77
2022/01/18 07:07:46;;;;;;;13.93;8.75;;;5.30;99.90;;;;;;4916984;29;20146;-79
2022/01/18 07:10:13;;;;;;;15.52;9.43;;;5.30;99.90;;;;;;4916709;29;20058;-79
2022/01/18 07:12:40;;;;;;;15.00;9.15;;;5.30;99.90;;;;;;4917044;29;20094;-77
2022/01/18 07:15:09;;;;;;;14.75;9.00;;;5.30;99.90;;;;;;4917251;29;20134;-79
2022/01/18 07:17:37;;;;;;;18.13;10.27;;;5.30;99.90;;;;;;4916639;29;20130;-77
2022/01/18 07:20:07;;;;;;;16.25;10.25;;;5.30;99.90;;;;;;4916720;29;20458;-77
2022/01/18 07:22:34;;;;;;;16.73;10.25;;;5.30;99.90;;;;;;4916580;29;20094;-77
2022/01/18 07:25:10;;;;;;;16.35;9.90;;;5.30;99.90;;;;;;4916610;29;20406;-77
2022/01/18 07:27:37;;;;;;;14.90;9.38;;;5.30;99.90;;;;;;4916792;29;20056;-78
2022/01/18 07:30:06;;;;;;;16.85;10.18;;;5.20;99.90;;;;;;4916631;29;20469;-78
2022/01/18 07:32:33;;;;;;;15.82;9.60;;;5.30;99.90;;;;;;4915718;29;20044;-78
2022/01/18 07:35:02;;;;;;;16.50;9.60;;;5.30;99.90;;;;;;4916598;29;20140;-77
2022/01/18 07:37:29;;;;;;;16.55;9.82;;;5.30;99.90;;;;;;4916973;29;20140;-77
2022/01/18 07:39:56;;;;;;;17.55;10.02;;;5.30;99.90;;;;;;4916489;29;20134;-79
2022/01/18 07:42:24;;;;;;;18.40;10.10;;;5.30;99.90;;;;;;4916565;29;20139;-79
2022/01/18 07:44:52;;;;;;;16.67;9.68;;;5.30;99.90;;;;;;4918121;29;20571;-79
2022/01/18 07:47:20;;;;;;;17.13;10.25;;;5.30;99.90;;;;;;4916552;29;20052;-79
2022/01/18 07:49:47;;;;;;;16.85;10.05;;;5.30;99.90;;;;;;4916306;29;20138;-80
2022/01/18 07:52:14;;;;;;;18.30;11.18;;;5.30;99.90;;;;;;4916417;29;20135;-77
2022/01/18 07:54:41;;;;;;;19.08;11.30;;;5.30;99.90;;;;;;4916381;29;20083;-78
2022/01/18 07:57:11;;;;;;;18.60;10.77;;;5.30;99.90;;;;;;4916557;29;20468;-78
2022/01/18 07:59:39;;;;;;;18.75;10.52;;;5.30;99.90;;;;;;4916410;29;20135;-77
2022/01/18 08:02:06;;;;;;;18.55;10.38;;;5.30;99.90;;;;;;4916749;29;20050;-77
2022/01/18 08:04:33;;;;;;;18.75;11.30;;;5.40;99.90;;;;;;4917231;29;20127;-78
2022/01/18 08:07:00;;;;;;;18.90;10.95;;;5.40;99.90;;;;;;4919579;29;20056;-77
2022/01/18 08:09:27;;;;;;;18.52;10.85;;;5.40;99.90;;;;;;4919796;29;20136;-77
2022/01/18 08:11:55;;;;;;;18.92;10.80;;;5.40;99.90;;;;;;4919885;29;20138;-79
2022/01/18 08:14:22;;;;;;;20.42;10.73;;;5.50;99.90;;;;;;4919911;29;20104;-79
2022/01/18 08:17:00;;;;;;;19.90;11.73;;;5.50;99.90;;;;;;4919731;29;20048;-79
2022/01/18 08:19:28;;;;;;;20.13;11.00;;;5.50;99.90;;;;;;4920158;29;20071;-77
2022/01/18 08:21:56;;;;;;;18.90;11.10;;;5.50;99.90;;;;;;4919652;29;20063;-76
2022/01/18 08:24:23;;;;;;;23.63;12.23;;;5.50;99.90;;;;;;4919834;29;20127;-78
2022/01/18 08:26:50;;;;;;;21.73;11.25;;;5.50;99.90;;;;;;4919840;29;20142;-78
2022/01/18 08:29:17;;;;;;;21.40;12.00;;;5.60;99.90;;;;;;4919551;29;20139;-77
2022/01/18 08:31:45;;;;;;;23.88;12.15;;;5.60;99.90;;;;;;4920035;29;20155;-78
2022/01/18 08:34:14;;;;;;;21.00;11.55;;;5.60;99.90;;;;;;4920409;29;20048;-77
2022/01/18 08:36:42;;;;;;;21.45;11.68;;;5.60;99.90;;;;;;4919735;29;20058;-79
2022/01/18 08:39:09;;;;;;;18.98;10.88;;;5.70;99.90;;;;;;4920264;29;20130;-77
2022/01/18 08:41:36;;;;;;;21.13;11.98;;;5.70;99.90;;;;;;4919916;29;20060;-78
2022/01/18 08:44:04;;;;;;;20.95;11.98;;;5.70;99.90;;;;;;4919781;29;20561;-78
2022/01/18 08:46:31;;;;;;;23.85;12.70;;;5.80;99.90;;;;;;4919254;29;20048;-79
2022/01/18 08:48:58;;;;;;;24.38;13.60;;;5.80;99.90;;;;;;4919605;29;20052;-78
2022/01/18 08:51:28;;;;;;;25.33;13.77;;;5.80;99.90;;;;;;4919129;29;20079;-79
2022/01/18 08:53:55;;;;;;;26.92;13.93;;;5.80;99.90;;;;;;4919379;29;20052;-78
2022/01/18 08:56:23;;;;;;;27.65;13.55;;;5.80;99.90;;;;;;4919240;29;20135;-79
2022/01/18 08:58:51;;;;;;;25.80;13.13;;;5.80;99.90;;;;;;4919569;29;20131;-78
2022/01/18 09:01:19;;;;;;;26.00;13.38;;;5.80;99.90;;;;;;4919647;29;20059;-77
2022/01/18 09:03:46;;;;;;;24.55;13.02;;;5.80;99.90;;;;;;4919909;29;20072;-76
2022/01/18 09:06:15;;;;;;;23.65;12.63;;;5.90;99.90;;;;;;4919109;29;20131;-78
2022/01/18 09:08:46;;;;;;;25.20;12.68;;;5.90;99.90;;;;;;4919175;29;20056;-78
2022/01/18 09:11:13;;;;;;;26.27;13.23;;;5.90;99.90;;;;;;4919545;29;20439;-77
2022/01/18 09:13:41;;;;;;;24.05;13.45;;;5.90;99.90;;;;;;4919417;29;20048;-78
2022/01/18 09:16:09;;;;;;;25.50;13.45;;;6.00;99.90;;;;;;4924043;29;20043;-78
2022/01/18 09:18:38;;;;;;;25.67;13.48;;;5.90;99.90;;;;;;4938022;29;20058;-80
2022/01/18 09:21:05;;;;;;;26.95;13.88;;;6.00;99.90;;;;;;4937793;29;20199;-79
2022/01/18 09:23:33;;;;;;;25.65;13.25;;;6.00;99.90;;;;;;4938188;29;20048;-77
2022/01/18 09:26:01;;;;;;;23.73;13.57;;;6.00;99.90;;;;;;4938401;29;20071;-78
2022/01/18 09:28:28;;;;;;;26.20;13.38;;;6.00;99.90;;;;;;4938244;29;20126;-78
2022/01/18 09:30:55;;;;;;;24.63;12.57;;;6.00;99.90;;;;;;4938190;29;20059;-78
2022/01/18 09:33:22;;;;;;;24.58;13.30;;;6.00;99.90;;;;;;4937570;29;20143;-78
2022/01/18 09:35:50;;;;;;;22.73;12.57;;;6.00;99.90;;;;;;4937834;29;20139;-78
2022/01/18 09:38:17;;;;;;;30.50;14.50;;;6.00;99.90;;;;;;4937652;29;20501;-79
2022/01/18 09:40:45;;;;;;;30.45;14.88;;;6.00;99.90;;;;;;4938473;29;20122;-77
2022/01/18 09:43:15;;;;;;;26.42;14.38;;;6.00;99.90;;;;;;4938192;29;20103;-77
2022/01/18 09:45:45;;;;;;;29.25;13.75;;;6.00;99.90;;;;;;4938269;29;20138;-77
2022/01/18 09:48:14;;;;;;;25.80;13.82;;;6.00;99.90;;;;;;4937260;29;20050;-77
2022/01/18 09:50:44;;;;;;;32.60;15.18;;;6.00;99.90;;;;;;4937590;29;20087;-76
2022/01/18 09:53:12;;;;;;;28.90;14.60;;;5.90;99.90;;;;;;4937290;29;20142;-78
2022/01/18 09:55:41;;;;;;;30.10;14.05;;;5.90;99.90;;;;;;4937218;29;20048;-78
2022/01/18 09:58:10;;;;;;;31.40;14.52;;;6.00;99.90;;;;;;4937314;29;20052;-77
2022/01/18 10:00:42;;;;;;;29.33;15.18;;;6.00;99.90;;;;;;4937382;29;20056;-76
2022/01/18 10:03:25;;;;;;;28.67;14.68;;;6.10;99.90;;;;;;4936875;29;20131;-77
2022/01/18 10:05:52;;;;;;;29.67;14.20;;;6.10;99.90;;;;;;4936717;29;20446;-79
2022/01/18 10:08:20;;;;;;;27.98;14.52;;;6.20;99.90;;;;;;4936890;29;20134;-77
2022/01/18 10:10:50;;;;;;;32.22;14.57;;;6.20;99.90;;;;;;4937123;29;20058;-77
2022/01/18 10:13:20;;;;;;;28.77;13.93;;;6.30;99.90;;;;;;4936737;29;20139;-76
2022/01/18 10:16:08;;;;;;;29.67;14.27;;;6.30;99.90;;;;;;4936631;29;20067;-77
2022/01/18 10:18:42;;;;;;;27.48;13.77;;;6.40;99.90;;;;;;4937731;29;20079;-77
2022/01/18 10:21:10;;;;;;;25.98;12.80;;;6.50;99.90;;;;;;4936731;29;20052;-77
2022/01/18 10:23:38;;;;;;;27.65;13.98;;;6.50;99.90;;;;;;4937003;29;20127;-77
2022/01/18 10:26:24;;;;;;;25.88;12.23;;;6.60;99.90;;;;;;4936571;29;20135;-78
2022/01/18 10:29:02;;;;;;;27.40;12.63;;;6.60;99.90;;;;;;4936656;29;20134;-76
2022/01/18 10:31:39;;;;;;;28.25;13.10;;;6.70;99.90;;;;;;4935174;29;20587;-77
2022/01/18 10:34:39;;;;;;;24.63;12.23;;;6.70;99.90;;;;;;4935845;29;20055;-79
2022/01/18 10:37:10;;;;;;;23.33;12.20;;;6.80;99.90;;;;;;4936752;29;20087;-78
2022/01/18 10:39:40;;;;;;;25.33;12.27;;;6.90;99.90;;;;;;4936294;29;20135;-78
2022/01/18 10:42:17;;;;;;;24.77;12.02;;;7.00;99.90;;;;;;4936544;29;20472;-77
2022/01/18 10:44:46;;;;;;;22.05;11.73;;;7.10;99.90;;;;;;4936358;29;20051;-79
2022/01/18 10:47:17;;;;;;;22.27;10.82;;;7.20;99.90;;;;;;4936218;29;20056;-79
2022/01/18 10:49:47;;;;;;;22.88;12.00;;;7.20;99.90;;;;;;4936125;29;20052;-79
2022/01/18 10:52:18;;;;;;;22.48;11.80;;;7.20;99.90;;;;;;4936226;29;20048;-80
2022/01/18 10:54:48;;;;;;;19.52;10.85;;;7.30;99.90;;;;;;4936391;29;20142;-79
2022/01/18 10:57:20;;;;;;;19.45;10.35;;;7.40;99.90;;;;;;4930296;29;20048;-78
2022/01/18 10:59:49;;;;;;;19.77;10.20;;;7.50;99.90;;;;;;4917412;29;20044;-79
2022/01/18 11:02:20;;;;;;;20.38;10.73;;;7.60;99.90;;;;;;4917077;29;20066;-81
2022/01/18 11:04:51;;;;;;;21.30;10.38;;;7.60;99.90;;;;;;4917728;29;20139;-78
2022/01/18 11:07:20;;;;;;;20.10;10.32;;;7.60;99.90;;;;;;4916850;29;20601;-78
2022/01/18 11:09:48;;;;;;;22.35;10.45;;;7.70;99.90;;;;;;4917444;29;20139;-80
2022/01/18 11:12:19;;;;;;;19.83;10.60;;;7.80;99.90;;;;;;4915888;29;20062;-80
2022/01/18 11:14:49;;;;;;;20.77;11.15;;;7.80;99.90;;;;;;4917207;29;20048;-80
2022/01/18 11:17:23;;;;;;;18.92;9.43;;;7.90;99.90;;;;;;4917134;29;20059;-79
2022/01/18 11:19:54;;;;;;;18.50;10.07;;;8.00;99.90;;;;;;4917681;29;20048;-81
2022/01/18 11:22:25;;;;;;;17.85;9.95;;;8.00;99.90;;;;;;4917600;29;20060;-80
2022/01/18 11:24:57;;;;;;;20.27;9.88;;;8.00;99.90;;;;;;4917293;29;20107;-83
2022/01/18 11:27:27;;;;;;;16.85;9.40;;;8.00;99.90;;;;;;4917292;29;20036;-80
2022/01/18 11:29:55;;;;;;;18.42;8.75;;;8.00;99.90;;;;;;4916959;29;20059;-80
2022/01/18 11:32:27;;;;;;;16.88;8.30;;;8.00;99.90;;;;;;4917105;29;20395;-82
2022/01/18 11:35:05;;;;;;;15.73;7.68;;;8.20;99.90;;;;;;4917837;29;20048;-81
2022/01/18 11:37:43;;;;;;;16.85;7.82;;;8.20;99.90;;;;;;4900309;29;20170;-79
2022/01/18 11:40:14;;;;;;;13.93;7.13;;;8.30;99.90;;;;;;4899372;29;20087;-79
2022/01/18 11:42:50;;;;;;;15.85;7.55;;;8.30;99.90;;;;;;4901729;29;20059;-81
2022/01/18 11:45:40;;;;;;;14.13;7.60;;;8.30;99.90;;;;;;4901551;29;20060;-79
2022/01/18 11:48:16;;;;;;;13.70;7.25;;;8.30;99.90;;;;;;4901685;29;20554;-81
2022/01/18 11:50:50;;;;;;;12.23;6.30;;;8.20;99.90;;;;;;4901615;29;20107;-80
2022/01/18 11:53:44;;;;;;;12.73;6.55;;;8.10;99.90;;;;;;4901437;29;20051;-79
2022/01/18 11:56:16;;;;;;;13.75;6.40;;;8.10;99.90;;;;;;4899051;29;20124;-79
2022/01/18 11:58:44;;;;;;;10.35;5.15;;;8.00;99.90;;;;;;4901533;29;20135;-78
2022/01/18 12:01:12;;;;;;;10.68;4.82;;;7.90;99.90;;;;;;4901454;29;20475;-81
2022/01/18 12:03:49;;;;;;;9.00;4.43;;;7.80;99.90;;;;;;4907633;29;20044;-79
2022/01/18 12:06:17;;;;;;;9.45;4.97;;;7.70;99.90;;;;;;4920419;29;20078;-78
2022/01/18 12:08:46;;;;;;;13.18;5.70;;;7.70;99.90;;;;;;4919092;29;20075;-79
2022/01/18 12:11:36;;;;;;;10.57;5.43;;;7.70;99.90;;;;;;4920768;29;20052;-80
2022/01/18 12:14:04;;;;;;;16.85;8.07;;;7.70;99.90;;;;;;4920530;29;20581;-81
2022/01/18 12:16:33;;;;;;;16.27;8.48;;;7.80;99.90;;;;;;4920206;29;20048;-80
2022/01/18 12:19:07;;;;;;;17.05;8.55;;;7.80;99.90;;;;;;4919708;29;20131;-79
2022/01/18 12:21:36;;;;;;;13.43;7.13;;;7.90;99.90;;;;;;4920248;29;20055;-79
2022/01/18 12:24:20;;;;;;;17.10;8.50;;;7.90;99.90;;;;;;4920486;29;20058;-82
2022/01/18 12:26:58;;;;;;;16.63;7.55;;;7.90;99.90;;;;;;4919882;29;20139;-79
2022/01/18 12:30:00;;;;;;;13.15;6.50;;;7.90;99.90;;;;;;4920006;29;20095;-81
2022/01/18 12:32:56;;;;;;;14.23;6.88;;;8.00;99.90;;;;;;4919466;29;20112;-81
2022/01/18 12:35:27;;;;;;;11.38;6.22;;;8.10;99.90;;;;;;4919576;29;20048;-81
2022/01/18 12:37:54;;;;;;;15.43;8.25;;;8.10;99.90;;;;;;4919450;29;20055;-79
2022/01/18 12:40:33;;;;;;;16.95;8.02;;;8.10;99.90;;;;;;4919852;29;20058;-78
2022/01/18 12:45:55;;;;;;;14.85;7.30;;;8.10;99.90;;;;;;4919615;29;20063;-78
2022/01/18 12:48:23;;;;;;;14.85;7.63;;;8.10;99.70;;;;;;4919675;29;20123;-78
2022/01/18 12:50:56;;;;;;;13.45;6.88;;;8.10;99.70;;;;;;4918628;29;20052;-78
2022/01/18 12:53:27;;;;;;;14.60;6.80;;;8.00;99.80;;;;;;4918520;29;20064;-78
2022/01/18 12:55:57;;;;;;;13.45;6.72;;;8.00;99.90;;;;;;4919010;29;20138;-78
2022/01/18 12:58:27;;;;;;;11.43;6.00;;;7.90;99.80;;;;;;4918626;29;20510;-79
2022/01/18 13:00:58;;;;;;;11.20;6.38;;;7.90;99.80;;;;;;4919488;29;20084;-79
2022/01/18 13:03:28;;;;;;;13.57;7.15;;;7.90;99.90;;;;;;4919220;29;20146;-78
2022/01/18 13:06:00;;;;;;;15.27;7.63;;;7.80;99.90;;;;;;4919019;29;20159;-77
2022/01/18 13:08:30;;;;;;;13.38;6.70;;;7.70;99.90;;;;;;4919185;29;20122;-77
2022/01/18 13:10:57;;;;;;;12.63;6.45;;;7.70;99.90;;;;;;4918932;29;20139;-78
2022/01/18 13:13:33;;;;;;;12.40;6.20;;;7.60;99.90;;;;;;4918730;29;20139;-78
2022/01/18 13:25:03;;;;;;;11.77;6.50;;;7.50;99.90;;;;;;4918203;29;20090;-78
2022/01/18 13:27:36;;;;;;;13.52;6.60;;;7.60;99.90;;;;;;4918419;29;20458;-77
2022/01/18 13:30:18;;;;;;;11.93;5.88;;;7.50;99.90;;;;;;4919274;29;20056;-79
2022/01/18 13:32:46;;;;;;;11.60;6.00;;;7.50;99.90;;;;;;4919765;29;20266;-78
2022/01/18 13:35:15;;;;;;;14.23;6.15;;;7.50;99.90;;;;;;4918196;29;20079;-79
2022/01/18 13:37:44;;;;;;;12.05;5.47;;;7.50;99.90;;;;;;4917397;29;20379;-78
2022/01/18 13:40:17;;;;;;;10.98;5.70;;;7.50;99.90;;;;;;4918153;29;20075;-77
2022/01/18 13:42:47;;;;;;;11.20;5.30;;;7.50;99.90;;;;;;4917934;29;20110;-77
2022/01/18 13:45:18;;;;;;;10.65;5.32;;;7.50;99.90;;;;;;4917633;29;20055;-78
2022/01/18 13:47:50;;;;;;;11.20;4.78;;;7.60;99.90;;;;;;4917413;29;20051;-77
2022/01/18 13:50:48;;;;;;;10.10;4.85;;;7.60;99.90;;;;;;4917257;29;20738;-77
2022/01/18 13:53:20;;;;;;;8.43;4.80;;;7.60;99.90;;;;;;4885186;29;20502;-77
2022/01/18 13:55:51;;;;;;;13.27;5.18;;;7.50;99.90;;;;;;4917817;29;20055;-79
2022/01/18 13:58:25;;;;;;;10.98;4.90;;;7.50;99.90;;;;;;4917952;29;20048;-76
2022/01/18 14:00:53;;;;;;;9.85;5.20;;;7.40;99.90;;;;;;4917833;29;20140;-77
2022/01/18 14:03:31;;;;;;;10.63;4.78;;;7.40;99.90;;;;;;4917101;29;20135;-77
2022/01/18 14:05:58;;;;;;;10.35;4.85;;;7.30;99.90;;;;;;4918528;29;20111;-79
2022/01/18 14:08:35;;;;;;;9.13;4.75;;;7.30;99.90;;;;;;4918090;29;20127;-77
2022/01/18 14:11:05;;;;;;;10.13;4.85;;;7.30;99.90;;;;;;4917495;29;20494;-78
2022/01/18 14:13:36;;;;;;;10.13;5.03;;;7.30;99.90;;;;;;4917582;29;20497;-80
2022/01/18 14:16:19;;;;;;;9.65;4.55;;;7.30;99.90;;;;;;4917756;29;20059;-78
2022/01/18 14:18:56;;;;;;;9.05;4.30;;;7.20;99.90;;;;;;4917988;29;20498;-78
2022/01/18 14:21:30;;;;;;;11.35;4.20;;;7.20;99.90;;;;;;4917627;29;20139;-77
2022/01/18 14:24:24;;;;;;;10.15;4.30;;;7.10;99.90;;;;;;4917493;29;20047;-78
2022/01/18 14:27:01;;;;;;;7.68;4.00;;;7.10;99.90;;;;;;4904120;29;20130;-77
2022/01/18 14:29:31;;;;;;;10.43;4.28;;;7.10;99.90;;;;;;4916559;29;20156;-79
2022/01/18 14:32:01;;;;;;;12.60;5.13;;;7.10;99.90;;;;;;4917386;29;20139;-77
2022/01/18 14:34:33;;;;;;;9.88;5.45;;;7.00;99.90;;;;;;4917407;29;20090;-79
2022/01/18 14:37:01;;;;;;;10.45;5.45;;;7.00;99.90;;;;;;4917644;29;20090;-77
2022/01/18 14:39:30;;;;;;;11.98;5.65;;;7.00;99.90;;;;;;4917351;29;20476;-79
2022/01/18 14:42:04;;;;;;;10.35;4.78;;;7.00;99.90;;;;;;4916873;29;20141;-78
2022/01/18 14:44:59;;;;;;;8.63;4.35;;;7.00;99.90;;;;;;4917537;29;20094;-78
2022/01/18 14:47:26;;;;;;;9.27;4.43;;;7.00;99.90;;;;;;4917579;29;20052;-78
2022/01/18 14:49:54;;;;;;;8.80;4.00;;;7.00;99.90;;;;;;4917813;29;20233;-79
2022/01/18 14:52:22;;;;;;;8.38;3.67;;;7.00;99.90;;;;;;4917090;29;20048;-78
2022/01/18 14:54:50;;;;;;;9.77;3.90;;;7.00;99.90;;;;;;4916535;29;20056;-78
2022/01/18 14:57:17;;;;;;;9.15;4.32;;;6.90;99.90;;;;;;4917388;29;20084;-77
2022/01/18 14:59:44;;;;;;;9.20;4.30;;;6.90;99.90;;;;;;4916411;29;20549;-79
2022/01/18 15:02:12;;;;;;;8.82;4.22;;;6.90;99.90;;;;;;4917157;29;20048;-79
2022/01/18 15:04:40;;;;;;;7.53;4.10;;;6.90;99.90;;;;;;4917081;29;20044;-78
2022/01/18 15:07:09;;;;;;;7.20;3.85;;;6.80;99.90;;;;;;4916592;29;20482;-78
2022/01/18 15:09:36;;;;;;;8.23;4.13;;;6.80;99.90;;;;;;4916956;29;20135;-78
2022/01/18 15:12:08;;;;;;;7.53;4.00;;;6.70;99.90;;;;;;4917088;29;20113;-80
2022/01/18 15:14:35;;;;;;;7.75;3.55;;;6.70;99.90;;;;;;4916462;29;20062;-78
2022/01/18 15:17:04;;;;;;;8.60;3.90;;;6.60;99.90;;;;;;4917016;29;20067;-78
2022/01/18 15:19:34;;;;;;;9.68;4.05;;;6.60;99.90;;;;;;4916861;29;20478;-77
2022/01/18 15:22:01;;;;;;;8.20;3.33;;;6.60;99.90;;;;;;4916174;29;20585;-80
2022/01/18 15:24:28;;;;;;;6.85;3.53;;;6.60;99.90;;;;;;4916881;29;20075;-79
2022/01/18 15:26:59;;;;;;;6.57;3.22;;;6.60;99.90;;;;;;4916136;29;20127;-78
2022/01/18 15:29:28;;;;;;;8.23;3.75;;;6.60;99.90;;;;;;4916720;29;20044;-81
2022/01/18 15:31:55;;;;;;;6.78;3.35;;;6.60;99.90;;;;;;4915968;29;20139;-79
2022/01/18 15:34:23;;;;;;;6.85;3.40;;;6.60;99.90;;;;;;4916259;29;20054;-79
2022/01/18 15:36:50;;;;;;;7.53;3.28;;;6.70;99.90;;;;;;4917012;29;20466;-79
2022/01/18 15:39:17;;;;;;;6.38;3.20;;;6.70;99.90;;;;;;4916820;29;20135;-78
2022/01/18 15:41:44;;;;;;;8.80;3.80;;;6.70;99.90;;;;;;4916691;29;20131;-79
2022/01/18 15:44:11;;;;;;;5.82;3.50;;;6.70;99.90;;;;;;4916757;29;20127;-82
2022/01/18 15:46:40;;;;;;;8.02;3.33;;;6.70;99.90;;;;;;4916173;29;20142;-80
2022/01/18 15:49:07;;;;;;;8.43;3.35;;;6.70;99.90;;;;;;4916419;29;20139;-79
2022/01/18 15:51:35;;;;;;;9.38;3.65;;;6.80;99.90;;;;;;4916059;29;20058;-80
2022/01/18 15:54:03;;;;;;;7.75;3.45;;;6.70;99.90;;;;;;4916175;29;20052;-77
2022/01/18 15:56:31;;;;;;;9.00;3.60;;;6.70;99.90;;;;;;4915857;29;20139;-78
2022/01/18 15:58:58;;;;;;;6.20;3.15;;;6.80;99.90;;;;;;4915123;29;20048;-77
2022/01/18 16:01:26;;;;;;;7.30;3.25;;;6.70;99.90;;;;;;4922235;29;20044;-79
2022/01/18 16:03:54;;;;;;;6.60;3.33;;;6.70;99.90;;;;;;4914605;29;20405;-78
2022/01/18 16:06:22;;;;;;;6.75;3.17;;;6.70;99.90;;;;;;4914481;29;20040;-79
2022/01/18 16:08:49;;;;;;;8.07;3.70;;;6.70;99.90;;;;;;4915879;29;20502;-80
2022/01/18 16:11:18;;;;;;;9.93;3.50;;;6.70;99.90;;;;;;4915143;29;20048;-77
2022/01/18 16:13:45;;;;;;;7.82;3.33;;;6.70;99.90;;;;;;4915340;29;20482;-77
2022/01/18 16:16:16;;;;;;;7.35;3.50;;;6.70;99.90;;;;;;4915451;29;20048;-76
2022/01/18 16:18:44;;;;;;;8.10;3.17;;;6.70;99.90;;;;;;4915907;29;20056;-76
2022/01/18 16:21:13;;;;;;;7.72;3.10;;;6.70;99.90;;;;;;4915801;29;20143;-79
2022/01/18 16:23:41;;;;;;;8.65;3.10;;;6.70;99.90;;;;;;4915563;29;20123;-77
2022/01/18 16:26:08;;;;;;;8.70;3.20;;;6.70;99.90;;;;;;4916386;29;20492;-79
2022/01/18 16:28:36;;;;;;;5.85;3.05;;;6.70;99.90;;;;;;4919418;29;20565;-76
2022/01/18 16:31:03;;;;;;;7.45;3.08;;;6.70;99.90;;;;;;4916570;29;20075;-78
2022/01/18 16:33:30;;;;;;;6.22;2.97;;;6.60;99.90;;;;;;4919566;29;20087;-78
2022/01/18 16:36:00;;;;;;;7.82;3.25;;;6.60;99.90;;;;;;4919400;29;20096;-79
2022/01/18 16:38:29;;;;;;;7.03;3.13;;;6.60;99.90;;;;;;4919208;29;20040;-78
2022/01/18 16:40:56;;;;;;;7.65;3.33;;;6.60;99.90;;;;;;4918732;29;20458;-80
2022/01/18 16:43:23;;;;;;;7.80;3.38;;;6.60;99.90;;;;;;4919111;29;20409;-79
2022/01/18 16:45:50;;;;;;;7.45;3.05;;;6.60;99.90;;;;;;4918721;29;20086;-80
2022/01/18 16:48:17;;;;;;;5.72;2.85;;;6.60;99.90;;;;;;4918179;29;20077;-78
2022/01/18 16:50:44;;;;;;;7.13;3.00;;;6.60;99.90;;;;;;4918112;29;20139;-79
2022/01/18 16:53:13;;;;;;;7.45;2.75;;;6.60;99.90;;;;;;4918833;29;20051;-78
2022/01/18 16:55:42;;;;;;;7.57;2.90;;;6.60;99.90;;;;;;4937852;29;20058;-77
2022/01/18 16:58:09;;;;;;;6.55;3.10;;;6.50;99.90;;;;;;4937949;29;20051;-78
2022/01/18 17:00:36;;;;;;;7.70;3.15;;;6.50;99.90;;;;;;4937412;29;20585;-79
2022/01/18 17:03:03;;;;;;;7.45;3.42;;;6.50;99.90;;;;;;4937691;29;20138;-77
2022/01/18 17:05:30;;;;;;;6.20;2.80;;;6.50;99.90;;;;;;4939334;29;20585;-78
2022/01/18 17:07:58;;;;;;;5.38;2.70;;;6.50;99.90;;;;;;4937807;29;20135;-80
2022/01/18 17:10:25;;;;;;;6.78;3.00;;;6.40;99.90;;;;;;4937585;29;20505;-80
2022/01/18 17:12:54;;;;;;;6.00;3.30;;;6.40;99.90;;;;;;4937538;29;20446;-77
2022/01/18 17:15:21;;;;;;;5.35;2.90;;;6.40;99.90;;;;;;4937751;29;20047;-80
2022/01/18 17:17:48;;;;;;;6.50;2.90;;;6.40;99.90;;;;;;4937007;29;20153;-78
2022/01/18 17:20:15;;;;;;;6.70;2.58;;;6.40;99.90;;;;;;4935911;29;20058;-77
2022/01/18 17:22:43;;;;;;;7.57;2.80;;;6.40;99.90;;;;;;4936865;29;20565;-80
2022/01/18 17:25:10;;;;;;;6.50;2.50;;;6.40;99.90;;;;;;4936674;29;20058;-79
2022/01/18 17:27:37;;;;;;;6.13;2.50;;;6.40;99.90;;;;;;4936233;29;20127;-78
2022/01/18 17:30:08;;;;;;;5.47;2.25;;;6.30;99.90;;;;;;4936947;29;20150;-77
2022/01/18 17:32:35;;;;;;;5.78;2.50;;;6.30;99.90;;;;;;4935882;29;20051;-79
2022/01/18 17:35:02;;;;;;;5.93;2.38;;;6.30;99.90;;;;;;4937124;29;20126;-80
2022/01/18 17:37:29;;;;;;;6.13;2.15;;;6.30;99.90;;;;;;4935821;29;20135;-78
2022/01/18 17:39:56;;;;;;;4.65;2.00;;;6.30;99.80;;;;;;4936145;29;20048;-79
2022/01/18 17:42:24;;;;;;;6.03;2.65;;;6.30;99.70;;;;;;4936107;29;20134;-79
2022/01/18 17:44:51;;;;;;;7.05;2.50;;;6.30;99.50;;;;;;4936482;29;20056;-80
2022/01/18 17:47:19;;;;;;;6.05;2.22;;;6.30;99.60;;;;;;4933811;29;20119;-79
2022/01/18 17:49:47;;;;;;;5.72;2.00;;;6.20;99.30;;;;;;4935420;29;20047;-78
2022/01/18 17:52:14;;;;;;;5.75;2.08;;;6.20;99.30;;;;;;4926404;29;20082;-79
2022/01/18 17:54:41;;;;;;;4.45;2.00;;;6.20;99.30;;;;;;4935546;29;20109;-80
2022/01/18 17:57:09;;;;;;;4.35;2.20;;;6.10;99.00;;;;;;4938355;29;20062;-78
2022/01/18 17:59:36;;;;;;;5.00;1.90;;;6.10;98.80;;;;;;4924667;29;20044;-79
2022/01/18 18:02:03;;;;;;;5.88;2.05;;;6.10;98.90;;;;;;4933012;29;20043;-78
2022/01/18 18:04:33;;;;;;;5.57;2.13;;;6.10;98.80;;;;;;4920526;29;20039;-78
2022/01/18 18:07:00;;;;;;;4.60;1.85;;;6.10;98.70;;;;;;4927559;29;20099;-79
2022/01/18 18:09:28;;;;;;;4.90;1.90;;;6.10;98.70;;;;;;4924617;29;20391;-79
2022/01/18 18:11:55;;;;;;;3.80;1.90;;;6.10;98.60;;;;;;4922639;29;20047;-79